sensor_id;sensor_type;location;lat;lon;timestamp;P1;durP1;ratioP1;P2;durP2;ratioP2
56399;SDS011;42298;53.638;9.876;2023-09-30T00:01:01;22.77;;;5.78;;
56399;SDS011;42298;53.638;9.876;2023-09-30T00:03:28;12.90;;;5.05;;
56399;SDS011;42298;53.638;9.876;2023-09-30T00:05:53;20.77;;;5.50;;
56399;SDS011;42298;53.638;9.876;2023-09-30T00:08:19;15.18;;;5.22;;
56399;SDS011;42298;53.638;9.876;2023-09-30T00:10:44;14.45;;;5.25;;
56399;SDS011;42298;53.638;9.876;2023-09-30T00:13:10;15.32;;;5.15;;
56399;SDS011;42298;53.638;9.876;2023-09-30T00:15:36;17.17;;;5.50;;
56399;SDS011;42298;53.638;9.876;2023-09-30T00:18:01;13.02;;;4.53;;
56399;SDS011;42298;53.638;9.876;2023-09-30T00:20:27;14.68;;;4.75;;
56399;SDS011;42298;53.638;9.876;2023-09-30T00:22:53;14.23;;;4.70;;
56399;SDS011;42298;53.638;9.876;2023-09-30T00:25:18;13.77;;;4.65;;
56399;SDS011;42298;53.638;9.876;2023-09-30T00:27:47;15.40;;;4.72;;
56399;SDS011;42298;53.638;9.876;2023-09-30T00:30:13;15.20;;;4.45;;
56399;SDS011;42298;53.638;9.876;2023-09-30T00:32:38;16.90;;;4.70;;
56399;SDS011;42298;53.638;9.876;2023-09-30T00:35:04;17.70;;;4.88;;
56399;SDS011;42298;53.638;9.876;2023-09-30T00:37:36;19.30;;;4.43;;
56399;SDS011;42298;53.638;9.876;2023-09-30T00:40:05;17.02;;;5.30;;
56399;SDS011;42298;53.638;9.876;2023-09-30T00:42:31;16.65;;;5.20;;
56399;SDS011;42298;53.638;9.876;2023-09-30T00:44:56;16.52;;;5.07;;
56399;SDS011;42298;53.638;9.876;2023-09-30T00:47:22;15.13;;;4.53;;
56399;SDS011;42298;53.638;9.876;2023-09-30T00:49:49;15.13;;;4.57;;
56399;SDS011;42298;53.638;9.876;2023-09-30T00:52:15;14.20;;;4.55;;
56399;SDS011;42298;53.638;9.876;2023-09-30T00:54:41;16.95;;;4.93;;
56399;SDS011;42298;53.638;9.876;2023-09-30T00:57:08;17.17;;;4.70;;
56399;SDS011;42298;53.638;9.876;2023-09-30T00:59:35;15.52;;;4.45;;
56399;SDS011;42298;53.638;9.876;2023-09-30T01:02:01;16.33;;;4.72;;
56399;SDS011;42298;53.638;9.876;2023-09-30T01:04:27;15.57;;;4.40;;
56399;SDS011;42298;53.638;9.876;2023-09-30T01:06:54;12.65;;;4.15;;
56399;SDS011;42298;53.638;9.876;2023-09-30T01:09:22;17.27;;;4.60;;
56399;SDS011;42298;53.638;9.876;2023-09-30T01:11:47;17.08;;;4.78;;
56399;SDS011;42298;53.638;9.876;2023-09-30T01:14:30;14.88;;;4.72;;
56399;SDS011;42298;53.638;9.876;2023-09-30T01:16:57;13.18;;;4.28;;
56399;SDS011;42298;53.638;9.876;2023-09-30T01:19:23;12.57;;;3.72;;
56399;SDS011;42298;53.638;9.876;2023-09-30T01:21:54;16.63;;;4.75;;
56399;SDS011;42298;53.638;9.876;2023-09-30T01:24:24;13.77;;;4.28;;
56399;SDS011;42298;53.638;9.876;2023-09-30T01:26:50;15.98;;;4.30;;
56399;SDS011;42298;53.638;9.876;2023-09-30T01:29:16;16.23;;;4.53;;
56399;SDS011;42298;53.638;9.876;2023-09-30T01:31:42;14.88;;;3.90;;
56399;SDS011;42298;53.638;9.876;2023-09-30T01:34:07;15.70;;;4.15;;
56399;SDS011;42298;53.638;9.876;2023-09-30T01:36:33;17.33;;;4.63;;
56399;SDS011;42298;53.638;9.876;2023-09-30T01:38:58;18.08;;;4.80;;
56399;SDS011;42298;53.638;9.876;2023-09-30T01:41:24;18.80;;;4.43;;
56399;SDS011;42298;53.638;9.876;2023-09-30T01:43:49;15.75;;;4.53;;
56399;SDS011;42298;53.638;9.876;2023-09-30T01:46:14;19.70;;;5.07;;
56399;SDS011;42298;53.638;9.876;2023-09-30T01:48:40;16.58;;;4.70;;
56399;SDS011;42298;53.638;9.876;2023-09-30T01:51:06;14.30;;;4.45;;
56399;SDS011;42298;53.638;9.876;2023-09-30T01:53:31;18.98;;;5.18;;
56399;SDS011;42298;53.638;9.876;2023-09-30T01:55:57;14.45;;;4.50;;
56399;SDS011;42298;53.638;9.876;2023-09-30T01:58:22;15.18;;;4.05;;
56399;SDS011;42298;53.638;9.876;2023-09-30T02:00:48;18.38;;;4.07;;
56399;SDS011;42298;53.638;9.876;2023-09-30T02:03:13;14.70;;;4.75;;
56399;SDS011;42298;53.638;9.876;2023-09-30T02:05:39;12.88;;;4.43;;
56399;SDS011;42298;53.638;9.876;2023-09-30T02:08:04;15.50;;;4.35;;
56399;SDS011;42298;53.638;9.876;2023-09-30T02:10:31;15.32;;;4.15;;
56399;SDS011;42298;53.638;9.876;2023-09-30T02:12:58;20.42;;;4.85;;
56399;SDS011;42298;53.638;9.876;2023-09-30T02:15:24;14.65;;;4.15;;
56399;SDS011;42298;53.638;9.876;2023-09-30T02:17:50;16.77;;;4.45;;
56399;SDS011;42298;53.638;9.876;2023-09-30T02:20:17;16.10;;;4.78;;
56399;SDS011;42298;53.638;9.876;2023-09-30T02:22:44;13.55;;;4.13;;
56399;SDS011;42298;53.638;9.876;2023-09-30T02:25:10;15.10;;;4.60;;
56399;SDS011;42298;53.638;9.876;2023-09-30T02:27:37;16.17;;;4.38;;
56399;SDS011;42298;53.638;9.876;2023-09-30T02:30:04;15.82;;;4.45;;
56399;SDS011;42298;53.638;9.876;2023-09-30T02:32:30;21.65;;;5.30;;
56399;SDS011;42298;53.638;9.876;2023-09-30T02:34:58;18.88;;;4.85;;
56399;SDS011;42298;53.638;9.876;2023-09-30T02:37:23;16.88;;;4.68;;
56399;SDS011;42298;53.638;9.876;2023-09-30T02:39:48;15.50;;;4.80;;
56399;SDS011;42298;53.638;9.876;2023-09-30T02:42:14;16.48;;;5.03;;
56399;SDS011;42298;53.638;9.876;2023-09-30T02:44:40;17.67;;;4.57;;
56399;SDS011;42298;53.638;9.876;2023-09-30T02:47:05;12.60;;;4.03;;
56399;SDS011;42298;53.638;9.876;2023-09-30T02:49:32;14.63;;;4.90;;
56399;SDS011;42298;53.638;9.876;2023-09-30T02:51:58;15.57;;;4.93;;
56399;SDS011;42298;53.638;9.876;2023-09-30T02:54:23;22.60;;;6.18;;
56399;SDS011;42298;53.638;9.876;2023-09-30T02:56:48;18.27;;;4.43;;
56399;SDS011;42298;53.638;9.876;2023-09-30T02:59:14;16.40;;;4.90;;
56399;SDS011;42298;53.638;9.876;2023-09-30T03:01:40;15.70;;;4.90;;
56399;SDS011;42298;53.638;9.876;2023-09-30T03:04:06;20.67;;;5.35;;
56399;SDS011;42298;53.638;9.876;2023-09-30T03:06:32;19.25;;;5.28;;
56399;SDS011;42298;53.638;9.876;2023-09-30T03:09:03;16.33;;;5.13;;
56399;SDS011;42298;53.638;9.876;2023-09-30T03:11:32;15.55;;;5.03;;
56399;SDS011;42298;53.638;9.876;2023-09-30T03:13:59;16.33;;;5.18;;
56399;SDS011;42298;53.638;9.876;2023-09-30T03:16:24;17.23;;;4.93;;
56399;SDS011;42298;53.638;9.876;2023-09-30T03:18:50;18.08;;;4.80;;
56399;SDS011;42298;53.638;9.876;2023-09-30T03:21:16;16.00;;;4.35;;
56399;SDS011;42298;53.638;9.876;2023-09-30T03:23:42;18.35;;;5.50;;
56399;SDS011;42298;53.638;9.876;2023-09-30T03:26:09;16.95;;;4.75;;
56399;SDS011;42298;53.638;9.876;2023-09-30T03:28:38;18.55;;;5.05;;
56399;SDS011;42298;53.638;9.876;2023-09-30T03:31:03;17.52;;;5.03;;
56399;SDS011;42298;53.638;9.876;2023-09-30T03:33:30;18.55;;;5.28;;
56399;SDS011;42298;53.638;9.876;2023-09-30T03:35:56;20.58;;;5.13;;
56399;SDS011;42298;53.638;9.876;2023-09-30T03:38:23;14.63;;;4.85;;
56399;SDS011;42298;53.638;9.876;2023-09-30T03:40:48;15.30;;;5.15;;
56399;SDS011;42298;53.638;9.876;2023-09-30T03:43:15;16.30;;;5.03;;
56399;SDS011;42298;53.638;9.876;2023-09-30T03:45:41;20.30;;;5.05;;
56399;SDS011;42298;53.638;9.876;2023-09-30T03:48:06;16.50;;;4.68;;
56399;SDS011;42298;53.638;9.876;2023-09-30T03:50:32;16.52;;;5.45;;
56399;SDS011;42298;53.638;9.876;2023-09-30T03:53:01;18.10;;;5.15;;
56399;SDS011;42298;53.638;9.876;2023-09-30T03:55:28;18.00;;;5.03;;
56399;SDS011;42298;53.638;9.876;2023-09-30T03:57:55;17.00;;;5.45;;
56399;SDS011;42298;53.638;9.876;2023-09-30T04:00:21;13.68;;;5.22;;
56399;SDS011;42298;53.638;9.876;2023-09-30T04:02:47;17.98;;;5.55;;
56399;SDS011;42298;53.638;9.876;2023-09-30T04:05:14;17.27;;;5.40;;
56399;SDS011;42298;53.638;9.876;2023-09-30T04:07:40;15.68;;;4.90;;
56399;SDS011;42298;53.638;9.876;2023-09-30T04:10:07;15.05;;;4.70;;
56399;SDS011;42298;53.638;9.876;2023-09-30T04:12:33;15.05;;;4.63;;
56399;SDS011;42298;53.638;9.876;2023-09-30T04:14:59;15.52;;;4.10;;
56399;SDS011;42298;53.638;9.876;2023-09-30T04:17:24;16.90;;;5.10;;
56399;SDS011;42298;53.638;9.876;2023-09-30T04:19:51;19.48;;;4.85;;
56399;SDS011;42298;53.638;9.876;2023-09-30T04:22:17;15.45;;;4.53;;
56399;SDS011;42298;53.638;9.876;2023-09-30T04:24:43;16.23;;;4.95;;
56399;SDS011;42298;53.638;9.876;2023-09-30T04:27:09;20.67;;;5.75;;
56399;SDS011;42298;53.638;9.876;2023-09-30T04:29:34;15.43;;;5.15;;
56399;SDS011;42298;53.638;9.876;2023-09-30T04:32:00;15.48;;;4.70;;
56399;SDS011;42298;53.638;9.876;2023-09-30T04:34:25;15.23;;;4.93;;
56399;SDS011;42298;53.638;9.876;2023-09-30T04:36:53;20.85;;;5.50;;
56399;SDS011;42298;53.638;9.876;2023-09-30T04:39:19;15.40;;;4.53;;
56399;SDS011;42298;53.638;9.876;2023-09-30T04:41:45;16.33;;;4.47;;
56399;SDS011;42298;53.638;9.876;2023-09-30T04:44:11;18.38;;;5.13;;
56399;SDS011;42298;53.638;9.876;2023-09-30T04:46:37;18.92;;;5.53;;
56399;SDS011;42298;53.638;9.876;2023-09-30T04:49:08;17.80;;;4.75;;
56399;SDS011;42298;53.638;9.876;2023-09-30T04:51:34;14.48;;;4.82;;
56399;SDS011;42298;53.638;9.876;2023-09-30T04:53:59;16.67;;;4.90;;
56399;SDS011;42298;53.638;9.876;2023-09-30T04:56:25;16.20;;;4.47;;
56399;SDS011;42298;53.638;9.876;2023-09-30T04:58:50;17.55;;;4.80;;
56399;SDS011;42298;53.638;9.876;2023-09-30T05:01:16;15.85;;;4.53;;
56399;SDS011;42298;53.638;9.876;2023-09-30T05:03:43;16.35;;;4.80;;
56399;SDS011;42298;53.638;9.876;2023-09-30T05:06:09;14.73;;;4.80;;
56399;SDS011;42298;53.638;9.876;2023-09-30T05:08:34;14.77;;;4.72;;
56399;SDS011;42298;53.638;9.876;2023-09-30T05:11:00;16.90;;;4.63;;
56399;SDS011;42298;53.638;9.876;2023-09-30T05:13:25;18.30;;;4.82;;
56399;SDS011;42298;53.638;9.876;2023-09-30T05:15:51;17.05;;;5.30;;
56399;SDS011;42298;53.638;9.876;2023-09-30T05:18:17;16.48;;;5.03;;
56399;SDS011;42298;53.638;9.876;2023-09-30T05:20:44;17.13;;;5.13;;
56399;SDS011;42298;53.638;9.876;2023-09-30T05:23:09;17.70;;;5.50;;
56399;SDS011;42298;53.638;9.876;2023-09-30T05:25:38;17.60;;;5.07;;
56399;SDS011;42298;53.638;9.876;2023-09-30T05:28:05;16.70;;;4.60;;
56399;SDS011;42298;53.638;9.876;2023-09-30T05:30:31;19.42;;;5.30;;
56399;SDS011;42298;53.638;9.876;2023-09-30T05:32:58;16.58;;;5.13;;
56399;SDS011;42298;53.638;9.876;2023-09-30T05:35:23;14.93;;;5.03;;
56399;SDS011;42298;53.638;9.876;2023-09-30T05:37:49;14.70;;;4.95;;
56399;SDS011;42298;53.638;9.876;2023-09-30T05:40:17;17.88;;;4.78;;
56399;SDS011;42298;53.638;9.876;2023-09-30T05:42:55;14.38;;;5.10;;
56399;SDS011;42298;53.638;9.876;2023-09-30T05:45:25;15.27;;;4.95;;
56399;SDS011;42298;53.638;9.876;2023-09-30T05:48:01;12.70;;;4.80;;
56399;SDS011;42298;53.638;9.876;2023-09-30T05:50:32;19.58;;;5.50;;
56399;SDS011;42298;53.638;9.876;2023-09-30T05:52:59;17.98;;;5.18;;
56399;SDS011;42298;53.638;9.876;2023-09-30T05:55:25;14.32;;;4.72;;
56399;SDS011;42298;53.638;9.876;2023-09-30T05:57:50;15.43;;;4.40;;
56399;SDS011;42298;53.638;9.876;2023-09-30T06:00:17;14.80;;;5.25;;
56399;SDS011;42298;53.638;9.876;2023-09-30T06:02:48;17.75;;;5.25;;
56399;SDS011;42298;53.638;9.876;2023-09-30T06:05:15;17.25;;;5.15;;
56399;SDS011;42298;53.638;9.876;2023-09-30T06:07:47;14.65;;;4.90;;
56399;SDS011;42298;53.638;9.876;2023-09-30T06:10:13;15.45;;;5.93;;
56399;SDS011;42298;53.638;9.876;2023-09-30T06:12:48;17.80;;;5.43;;
56399;SDS011;42298;53.638;9.876;2023-09-30T06:15:20;17.30;;;5.55;;
56399;SDS011;42298;53.638;9.876;2023-09-30T06:17:49;15.23;;;4.93;;
56399;SDS011;42298;53.638;9.876;2023-09-30T06:20:16;16.92;;;5.07;;
56399;SDS011;42298;53.638;9.876;2023-09-30T06:22:45;20.63;;;5.40;;
56399;SDS011;42298;53.638;9.876;2023-09-30T06:25:12;17.80;;;5.07;;
56399;SDS011;42298;53.638;9.876;2023-09-30T06:27:41;14.57;;;5.13;;
56399;SDS011;42298;53.638;9.876;2023-09-30T06:30:06;15.82;;;5.15;;
56399;SDS011;42298;53.638;9.876;2023-09-30T06:32:34;18.83;;;5.30;;
56399;SDS011;42298;53.638;9.876;2023-09-30T06:35:00;13.25;;;4.68;;
56399;SDS011;42298;53.638;9.876;2023-09-30T06:37:26;17.10;;;4.78;;
56399;SDS011;42298;53.638;9.876;2023-09-30T06:39:54;19.40;;;4.78;;
56399;SDS011;42298;53.638;9.876;2023-09-30T06:42:20;17.05;;;5.25;;
56399;SDS011;42298;53.638;9.876;2023-09-30T06:44:46;14.55;;;4.68;;
56399;SDS011;42298;53.638;9.876;2023-09-30T06:47:11;15.20;;;4.38;;
56399;SDS011;42298;53.638;9.876;2023-09-30T06:49:37;15.95;;;5.60;;
56399;SDS011;42298;53.638;9.876;2023-09-30T06:52:02;15.38;;;5.05;;
56399;SDS011;42298;53.638;9.876;2023-09-30T06:54:28;14.77;;;5.00;;
56399;SDS011;42298;53.638;9.876;2023-09-30T06:56:54;16.05;;;4.63;;
56399;SDS011;42298;53.638;9.876;2023-09-30T06:59:19;18.88;;;5.40;;
56399;SDS011;42298;53.638;9.876;2023-09-30T07:01:44;13.13;;;4.20;;
56399;SDS011;42298;53.638;9.876;2023-09-30T07:04:10;15.65;;;4.82;;
56399;SDS011;42298;53.638;9.876;2023-09-30T07:06:36;16.45;;;4.85;;
56399;SDS011;42298;53.638;9.876;2023-09-30T07:09:02;16.10;;;4.88;;
56399;SDS011;42298;53.638;9.876;2023-09-30T07:11:29;14.48;;;3.92;;
56399;SDS011;42298;53.638;9.876;2023-09-30T07:13:57;14.05;;;4.63;;
56399;SDS011;42298;53.638;9.876;2023-09-30T07:16:23;16.95;;;4.95;;
56399;SDS011;42298;53.638;9.876;2023-09-30T07:18:48;15.75;;;4.07;;
56399;SDS011;42298;53.638;9.876;2023-09-30T07:21:13;12.73;;;4.30;;
56399;SDS011;42298;53.638;9.876;2023-09-30T07:23:38;13.23;;;4.22;;
56399;SDS011;42298;53.638;9.876;2023-09-30T07:26:05;18.13;;;4.60;;
56399;SDS011;42298;53.638;9.876;2023-09-30T07:28:31;13.73;;;4.32;;
56399;SDS011;42298;53.638;9.876;2023-09-30T07:30:57;16.55;;;4.60;;
56399;SDS011;42298;53.638;9.876;2023-09-30T07:33:22;13.93;;;4.20;;
56399;SDS011;42298;53.638;9.876;2023-09-30T07:35:48;13.45;;;3.80;;
56399;SDS011;42298;53.638;9.876;2023-09-30T07:38:14;18.55;;;4.40;;
56399;SDS011;42298;53.638;9.876;2023-09-30T07:40:39;13.68;;;4.07;;
56399;SDS011;42298;53.638;9.876;2023-09-30T07:43:04;18.35;;;4.20;;
56399;SDS011;42298;53.638;9.876;2023-09-30T07:45:30;14.63;;;3.75;;
56399;SDS011;42298;53.638;9.876;2023-09-30T07:47:56;15.55;;;4.15;;
56399;SDS011;42298;53.638;9.876;2023-09-30T07:50:23;15.23;;;4.03;;
56399;SDS011;42298;53.638;9.876;2023-09-30T07:52:49;13.98;;;3.50;;
56399;SDS011;42298;53.638;9.876;2023-09-30T07:55:16;15.18;;;3.60;;
56399;SDS011;42298;53.638;9.876;2023-09-30T07:57:42;14.02;;;4.40;;
56399;SDS011;42298;53.638;9.876;2023-09-30T08:00:10;17.88;;;4.35;;
56399;SDS011;42298;53.638;9.876;2023-09-30T08:02:39;15.10;;;3.90;;
56399;SDS011;42298;53.638;9.876;2023-09-30T08:05:05;16.15;;;4.15;;
56399;SDS011;42298;53.638;9.876;2023-09-30T08:07:31;14.00;;;4.00;;
56399;SDS011;42298;53.638;9.876;2023-09-30T08:09:56;16.88;;;4.78;;
56399;SDS011;42298;53.638;9.876;2023-09-30T08:12:22;15.20;;;4.80;;
56399;SDS011;42298;53.638;9.876;2023-09-30T08:14:47;14.38;;;3.97;;
56399;SDS011;42298;53.638;9.876;2023-09-30T08:17:13;13.30;;;3.60;;
56399;SDS011;42298;53.638;9.876;2023-09-30T08:19:39;14.00;;;4.50;;
56399;SDS011;42298;53.638;9.876;2023-09-30T08:22:05;16.08;;;4.13;;
56399;SDS011;42298;53.638;9.876;2023-09-30T08:24:31;14.23;;;4.25;;
56399;SDS011;42298;53.638;9.876;2023-09-30T08:26:57;16.85;;;4.70;;
56399;SDS011;42298;53.638;9.876;2023-09-30T08:29:22;16.63;;;4.53;;
56399;SDS011;42298;53.638;9.876;2023-09-30T08:31:47;16.33;;;4.60;;
56399;SDS011;42298;53.638;9.876;2023-09-30T08:34:15;14.32;;;3.47;;
56399;SDS011;42298;53.638;9.876;2023-09-30T08:36:42;14.07;;;3.67;;
56399;SDS011;42298;53.638;9.876;2023-09-30T08:39:07;12.07;;;3.33;;
56399;SDS011;42298;53.638;9.876;2023-09-30T08:41:35;11.40;;;3.15;;
56399;SDS011;42298;53.638;9.876;2023-09-30T08:44:01;13.73;;;3.92;;
56399;SDS011;42298;53.638;9.876;2023-09-30T08:46:28;10.60;;;3.20;;
56399;SDS011;42298;53.638;9.876;2023-09-30T08:48:57;12.48;;;3.22;;
56399;SDS011;42298;53.638;9.876;2023-09-30T08:51:24;16.88;;;3.70;;
56399;SDS011;42298;53.638;9.876;2023-09-30T08:53:50;12.30;;;3.22;;
56399;SDS011;42298;53.638;9.876;2023-09-30T08:56:19;11.40;;;3.38;;
56399;SDS011;42298;53.638;9.876;2023-09-30T08:58:47;11.93;;;2.83;;
56399;SDS011;42298;53.638;9.876;2023-09-30T09:01:13;15.98;;;3.33;;
56399;SDS011;42298;53.638;9.876;2023-09-30T09:03:38;13.75;;;3.60;;
56399;SDS011;42298;53.638;9.876;2023-09-30T09:06:04;12.80;;;3.40;;
56399;SDS011;42298;53.638;9.876;2023-09-30T09:08:29;13.10;;;3.60;;
56399;SDS011;42298;53.638;9.876;2023-09-30T09:10:58;13.35;;;3.45;;
56399;SDS011;42298;53.638;9.876;2023-09-30T09:13:25;14.95;;;3.58;;
56399;SDS011;42298;53.638;9.876;2023-09-30T09:16:07;11.43;;;2.78;;
56399;SDS011;42298;53.638;9.876;2023-09-30T09:18:35;12.95;;;3.30;;
56399;SDS011;42298;53.638;9.876;2023-09-30T09:23:47;17.45;;;4.18;;
56399;SDS011;42298;53.638;9.876;2023-09-30T09:28:57;18.40;;;3.38;;
56399;SDS011;42298;53.638;9.876;2023-09-30T09:31:25;15.73;;;3.38;;
56399;SDS011;42298;53.638;9.876;2023-09-30T09:33:54;15.10;;;3.40;;
56399;SDS011;42298;53.638;9.876;2023-09-30T09:36:20;11.82;;;3.30;;
56399;SDS011;42298;53.638;9.876;2023-09-30T09:38:46;12.88;;;3.53;;
56399;SDS011;42298;53.638;9.876;2023-09-30T09:41:14;16.98;;;3.92;;
56399;SDS011;42298;53.638;9.876;2023-09-30T09:43:43;11.00;;;3.00;;
56399;SDS011;42298;53.638;9.876;2023-09-30T09:46:09;15.20;;;2.90;;
56399;SDS011;42298;53.638;9.876;2023-09-30T09:48:35;13.50;;;3.00;;
56399;SDS011;42298;53.638;9.876;2023-09-30T09:51:02;13.18;;;2.95;;
56399;SDS011;42298;53.638;9.876;2023-09-30T09:53:34;12.40;;;3.00;;
56399;SDS011;42298;53.638;9.876;2023-09-30T09:56:01;11.82;;;2.97;;
56399;SDS011;42298;53.638;9.876;2023-09-30T09:58:28;14.27;;;2.72;;
56399;SDS011;42298;53.638;9.876;2023-09-30T10:00:59;14.88;;;3.53;;
56399;SDS011;42298;53.638;9.876;2023-09-30T10:03:26;15.60;;;2.92;;
56399;SDS011;42298;53.638;9.876;2023-09-30T10:05:51;13.80;;;2.90;;
56399;SDS011;42298;53.638;9.876;2023-09-30T10:08:17;12.88;;;3.20;;
56399;SDS011;42298;53.638;9.876;2023-09-30T10:10:46;14.10;;;3.28;;
56399;SDS011;42298;53.638;9.876;2023-09-30T10:19:13;17.02;;;3.30;;
56399;SDS011;42298;53.638;9.876;2023-09-30T10:21:39;15.40;;;3.28;;
56399;SDS011;42298;53.638;9.876;2023-09-30T10:29:46;11.38;;;2.95;;
56399;SDS011;42298;53.638;9.876;2023-09-30T10:32:11;8.50;;;2.70;;
56399;SDS011;42298;53.638;9.876;2023-09-30T10:34:37;11.25;;;2.80;;
56399;SDS011;42298;53.638;9.876;2023-09-30T10:37:22;10.25;;;2.92;;
56399;SDS011;42298;53.638;9.876;2023-09-30T10:42:54;9.40;;;2.80;;
56399;SDS011;42298;53.638;9.876;2023-09-30T10:50:50;13.30;;;3.47;;
56399;SDS011;42298;53.638;9.876;2023-09-30T10:53:25;10.68;;;2.75;;
56399;SDS011;42298;53.638;9.876;2023-09-30T10:55:56;14.18;;;3.28;;
56399;SDS011;42298;53.638;9.876;2023-09-30T10:58:44;13.18;;;3.55;;
56399;SDS011;42298;53.638;9.876;2023-09-30T11:01:12;13.15;;;3.00;;
56399;SDS011;42298;53.638;9.876;2023-09-30T11:03:39;12.35;;;3.05;;
56399;SDS011;42298;53.638;9.876;2023-09-30T11:06:05;11.40;;;2.85;;
56399;SDS011;42298;53.638;9.876;2023-09-30T11:08:31;11.60;;;2.60;;
56399;SDS011;42298;53.638;9.876;2023-09-30T11:10:58;11.35;;;2.80;;
56399;SDS011;42298;53.638;9.876;2023-09-30T11:13:25;12.93;;;3.05;;
56399;SDS011;42298;53.638;9.876;2023-09-30T11:16:00;10.38;;;2.28;;
56399;SDS011;42298;53.638;9.876;2023-09-30T11:18:27;9.35;;;2.67;;
56399;SDS011;42298;53.638;9.876;2023-09-30T11:21:02;11.75;;;2.70;;
56399;SDS011;42298;53.638;9.876;2023-09-30T11:23:36;14.85;;;3.20;;
56399;SDS011;42298;53.638;9.876;2023-09-30T11:26:03;11.65;;;2.70;;
56399;SDS011;42298;53.638;9.876;2023-09-30T11:28:36;10.98;;;2.78;;
56399;SDS011;42298;53.638;9.876;2023-09-30T11:31:06;11.82;;;2.70;;
56399;SDS011;42298;53.638;9.876;2023-09-30T11:33:46;13.40;;;2.90;;
56399;SDS011;42298;53.638;9.876;2023-09-30T11:36:14;11.90;;;2.92;;
56399;SDS011;42298;53.638;9.876;2023-09-30T11:38:43;10.90;;;2.40;;
56399;SDS011;42298;53.638;9.876;2023-09-30T11:41:14;12.35;;;2.53;;
56399;SDS011;42298;53.638;9.876;2023-09-30T11:43:57;11.07;;;2.50;;
56399;SDS011;42298;53.638;9.876;2023-09-30T11:46:26;10.48;;;3.03;;
56399;SDS011;42298;53.638;9.876;2023-09-30T11:48:56;9.38;;;2.50;;
56399;SDS011;42298;53.638;9.876;2023-09-30T11:51:30;10.02;;;2.53;;
56399;SDS011;42298;53.638;9.876;2023-09-30T11:54:07;11.50;;;2.63;;
56399;SDS011;42298;53.638;9.876;2023-09-30T11:56:33;12.68;;;2.65;;
56399;SDS011;42298;53.638;9.876;2023-09-30T11:59:00;8.90;;;2.53;;
56399;SDS011;42298;53.638;9.876;2023-09-30T12:01:27;11.43;;;2.90;;
56399;SDS011;42298;53.638;9.876;2023-09-30T12:03:55;12.10;;;2.80;;
56399;SDS011;42298;53.638;9.876;2023-09-30T12:06:21;8.18;;;2.15;;
56399;SDS011;42298;53.638;9.876;2023-09-30T12:08:46;13.20;;;3.17;;
56399;SDS011;42298;53.638;9.876;2023-09-30T12:11:12;12.48;;;2.83;;
56399;SDS011;42298;53.638;9.876;2023-09-30T12:13:39;10.48;;;2.25;;
56399;SDS011;42298;53.638;9.876;2023-09-30T12:16:05;11.43;;;3.10;;
56399;SDS011;42298;53.638;9.876;2023-09-30T12:18:30;11.20;;;3.20;;
56399;SDS011;42298;53.638;9.876;2023-09-30T12:20:55;11.23;;;2.78;;
56399;SDS011;42298;53.638;9.876;2023-09-30T12:23:21;11.75;;;2.58;;
56399;SDS011;42298;53.638;9.876;2023-09-30T12:25:47;11.02;;;2.60;;
56399;SDS011;42298;53.638;9.876;2023-09-30T12:28:13;10.23;;;2.58;;
56399;SDS011;42298;53.638;9.876;2023-09-30T12:30:42;12.45;;;2.80;;
56399;SDS011;42298;53.638;9.876;2023-09-30T12:33:08;9.23;;;2.65;;
56399;SDS011;42298;53.638;9.876;2023-09-30T12:35:35;10.27;;;2.28;;
56399;SDS011;42298;53.638;9.876;2023-09-30T12:38:00;10.48;;;2.53;;
56399;SDS011;42298;53.638;9.876;2023-09-30T12:40:25;11.98;;;2.70;;
56399;SDS011;42298;53.638;9.876;2023-09-30T12:42:51;11.25;;;2.65;;
56399;SDS011;42298;53.638;9.876;2023-09-30T12:45:16;11.73;;;2.70;;
56399;SDS011;42298;53.638;9.876;2023-09-30T12:47:43;12.25;;;2.72;;
56399;SDS011;42298;53.638;9.876;2023-09-30T12:50:09;13.68;;;2.70;;
56399;SDS011;42298;53.638;9.876;2023-09-30T12:52:35;10.25;;;2.25;;
56399;SDS011;42298;53.638;9.876;2023-09-30T12:55:01;11.75;;;2.85;;
56399;SDS011;42298;53.638;9.876;2023-09-30T12:57:26;10.60;;;2.60;;
56399;SDS011;42298;53.638;9.876;2023-09-30T12:59:51;13.07;;;2.50;;
56399;SDS011;42298;53.638;9.876;2023-09-30T13:02:18;11.00;;;2.53;;
56399;SDS011;42298;53.638;9.876;2023-09-30T13:04:44;10.13;;;2.35;;
56399;SDS011;42298;53.638;9.876;2023-09-30T13:07:10;13.38;;;3.20;;
56399;SDS011;42298;53.638;9.876;2023-09-30T13:09:36;15.73;;;2.60;;
56399;SDS011;42298;53.638;9.876;2023-09-30T13:12:02;10.70;;;2.95;;
56399;SDS011;42298;53.638;9.876;2023-09-30T13:14:28;9.48;;;2.67;;
56399;SDS011;42298;53.638;9.876;2023-09-30T13:16:53;11.43;;;2.45;;
56399;SDS011;42298;53.638;9.876;2023-09-30T13:19:19;8.90;;;2.03;;
56399;SDS011;42298;53.638;9.876;2023-09-30T13:21:46;10.52;;;2.17;;
56399;SDS011;42298;53.638;9.876;2023-09-30T13:24:14;11.95;;;2.72;;
56399;SDS011;42298;53.638;9.876;2023-09-30T13:26:40;13.68;;;2.85;;
56399;SDS011;42298;53.638;9.876;2023-09-30T13:29:07;10.60;;;2.80;;
56399;SDS011;42298;53.638;9.876;2023-09-30T13:31:35;12.02;;;3.20;;
56399;SDS011;42298;53.638;9.876;2023-09-30T13:34:04;14.48;;;2.83;;
56399;SDS011;42298;53.638;9.876;2023-09-30T13:36:30;10.50;;;2.17;;
56399;SDS011;42298;53.638;9.876;2023-09-30T13:38:55;10.55;;;2.72;;
56399;SDS011;42298;53.638;9.876;2023-09-30T13:41:21;11.82;;;2.80;;
56399;SDS011;42298;53.638;9.876;2023-09-30T13:43:46;9.00;;;2.88;;
56399;SDS011;42298;53.638;9.876;2023-09-30T13:46:11;9.98;;;2.53;;
56399;SDS011;42298;53.638;9.876;2023-09-30T13:48:37;14.30;;;3.05;;
56399;SDS011;42298;53.638;9.876;2023-09-30T13:51:04;10.90;;;2.72;;
56399;SDS011;42298;53.638;9.876;2023-09-30T13:53:33;10.60;;;2.90;;
56399;SDS011;42298;53.638;9.876;2023-09-30T13:55:58;10.43;;;2.38;;
56399;SDS011;42298;53.638;9.876;2023-09-30T13:58:24;10.93;;;2.70;;
56399;SDS011;42298;53.638;9.876;2023-09-30T14:00:52;13.02;;;2.58;;
56399;SDS011;42298;53.638;9.876;2023-09-30T14:03:17;10.05;;;2.63;;
56399;SDS011;42298;53.638;9.876;2023-09-30T14:05:45;10.80;;;2.33;;
56399;SDS011;42298;53.638;9.876;2023-09-30T14:08:11;9.60;;;2.10;;
56399;SDS011;42298;53.638;9.876;2023-09-30T14:10:38;9.93;;;2.60;;
56399;SDS011;42298;53.638;9.876;2023-09-30T14:13:03;8.40;;;2.20;;
56399;SDS011;42298;53.638;9.876;2023-09-30T14:15:29;9.15;;;2.30;;
56399;SDS011;42298;53.638;9.876;2023-09-30T14:18:13;11.60;;;3.00;;
56399;SDS011;42298;53.638;9.876;2023-09-30T14:20:39;10.27;;;3.00;;
56399;SDS011;42298;53.638;9.876;2023-09-30T14:23:05;11.38;;;2.67;;
56399;SDS011;42298;53.638;9.876;2023-09-30T14:25:30;9.63;;;2.80;;
56399;SDS011;42298;53.638;9.876;2023-09-30T14:27:56;8.95;;;2.13;;
56399;SDS011;42298;53.638;9.876;2023-09-30T14:30:24;11.15;;;2.63;;
56399;SDS011;42298;53.638;9.876;2023-09-30T14:32:53;11.32;;;2.83;;
56399;SDS011;42298;53.638;9.876;2023-09-30T14:35:19;7.90;;;2.33;;
56399;SDS011;42298;53.638;9.876;2023-09-30T14:37:45;13.00;;;3.10;;
56399;SDS011;42298;53.638;9.876;2023-09-30T14:40:10;6.95;;;2.55;;
56399;SDS011;42298;53.638;9.876;2023-09-30T14:42:36;12.68;;;3.20;;
56399;SDS011;42298;53.638;9.876;2023-09-30T14:45:02;12.30;;;2.55;;
56399;SDS011;42298;53.638;9.876;2023-09-30T14:47:31;10.18;;;2.17;;
56399;SDS011;42298;53.638;9.876;2023-09-30T14:49:56;13.68;;;3.00;;
56399;SDS011;42298;53.638;9.876;2023-09-30T14:52:22;11.60;;;3.03;;
56399;SDS011;42298;53.638;9.876;2023-09-30T14:54:48;15.73;;;3.38;;
56399;SDS011;42298;53.638;9.876;2023-09-30T14:57:14;14.75;;;2.65;;
56399;SDS011;42298;53.638;9.876;2023-09-30T14:59:41;13.82;;;2.50;;